Time;durP1;ratioP1;P1;durP2;ratioP2;P2;SDS_P1;SDS_P2;PMS_P1;PMS_P2;Temp;Humidity;BMP_temperature;BMP_pressure;BME280_temperature;BME280_humidity;BME280_pressure;Samples;Min_cycle;Max_cycle;Signal;HPM_P1;HPM_P2
2023/08/29 00:02:00;;;;;;;5.70;1.60;;;;;;;15.39;89.08;99451.46;109006;1259;60610;-65
2023/08/29 00:04:46;;;;;;;6.60;2.10;;;;;;;15.38;89.74;99442.48;109040;1259;60098;-65
2023/08/29 00:07:32;;;;;;;6.40;2.00;;;;;;;15.38;89.90;99441.91;109019;1260;73877;-64
2023/08/29 00:10:19;;;;;;;6.40;2.30;;;;;;;15.37;89.73;99442.95;109060;1260;67613;-65
2023/08/29 00:13:05;;;;;;;5.80;1.80;;;;;;;15.38;90.18;99436.40;109036;1258;71349;-64
2023/08/29 00:15:52;;;;;;;5.80;2.20;;;;;;;15.39;90.85;99426.91;109002;1260;60460;-64
2023/08/29 00:18:38;;;;;;;5.70;2.00;;;;;;;15.40;90.25;99414.86;109048;1259;60550;-64
2023/08/29 00:21:24;;;;;;;7.00;2.10;;;;;;;15.41;90.29;99413.31;109007;1259;74119;-65
2023/08/29 00:24:10;;;;;;;5.60;1.90;;;;;;;15.40;90.75;99418.75;109035;1259;68031;-65
2023/08/29 00:26:57;;;;;;;5.00;1.80;;;;;;;15.40;90.97;99427.40;109020;1260;73538;-65
2023/08/29 00:29:43;;;;;;;5.90;2.20;;;;;;;15.35;90.73;99427.96;109049;1260;58027;-65
2023/08/29 00:32:29;;;;;;;6.40;2.10;;;;;;;15.31;91.19;99421.36;109052;1258;60198;-64
2023/08/29 00:35:15;;;;;;;7.50;2.30;;;;;;;15.26;91.49;99416.73;109027;1258;73198;-65
2023/08/29 00:38:02;;;;;;;6.90;2.40;;;;;;;15.21;91.71;99411.77;109049;1260;67722;-64
2023/08/29 00:40:49;;;;;;;6.90;2.10;;;;;;;15.19;91.78;99409.45;108965;1259;71830;-65
2023/08/29 00:43:37;;;;;;;7.10;2.00;;;;;;;15.20;92.64;99400.94;108986;1260;58591;-65
2023/08/29 00:46:24;;;;;;;5.50;2.00;;;;;;;15.22;93.02;99405.94;109001;1258;60099;-64
2023/08/29 00:49:13;;;;;;;6.90;1.90;;;;;;;15.23;93.69;99405.56;109030;1259;73878;-64
2023/08/29 00:52:02;;;;;;;6.20;1.90;;;;;;;15.26;93.95;99402.89;108990;1259;67161;-66
2023/08/29 00:54:49;;;;;;;6.00;2.10;;;;;;;15.29;93.77;99387.44;109102;1257;73506;-66
2023/08/29 00:57:36;;;;;;;7.10;2.00;;;;;;;15.32;94.19;99374.41;109016;1260;59481;-67
2023/08/29 01:00:28;;;;;;;5.70;1.90;;;;;;;15.31;94.76;99354.67;108972;1260;59024;-65
2023/08/29 01:03:15;;;;;;;7.50;2.30;;;;;;;15.29;95.36;99325.40;108886;1259;73249;-64
2023/08/29 01:06:01;;;;;;;7.00;2.30;;;;;;;15.24;95.33;99317.76;109045;1260;66500;-64
2023/08/29 01:08:47;;;;;;;6.00;1.90;;;;;;;15.17;94.83;99318.39;109009;1262;73751;-64
2023/08/29 01:11:53;;;;;;;6.40;1.80;;;;;;;15.10;94.70;99319.60;109012;1258;58023;-65
2023/08/29 01:15:10;;;;;;;5.60;2.00;;;;;;;15.06;94.89;99342.90;108996;1258;61450;-66
2023/08/29 01:18:03;;;;;;;8.20;2.20;;;;;;;15.02;95.49;99342.70;109042;1258;72977;-65
2023/08/29 01:20:55;;;;;;;6.50;2.10;;;;;;;15.00;95.86;99350.61;109063;1259;68881;-66
2023/08/29 01:23:50;;;;;;;6.20;2.10;;;;;;;14.98;96.39;99357.36;109013;1258;72681;-65
2023/08/29 01:26:37;;;;;;;6.60;2.00;;;;;;;14.95;96.17;99363.09;108963;1258;58146;-65
2023/08/29 01:29:25;;;;;;;6.60;2.10;;;;;;;14.96;96.62;99367.73;109001;1260;59079;-64
2023/08/29 01:32:15;;;;;;;8.90;2.00;;;;;;;14.97;96.54;99378.52;108931;1258;74180;-64
2023/08/29 01:35:02;;;;;;;5.50;2.10;;;;;;;14.98;96.80;99394.80;108903;1258;67915;-65
2023/08/29 01:37:48;;;;;;;6.60;2.00;;;;;;;14.99;97.33;99401.20;108983;1258;72747;-66
2023/08/29 01:40:34;;;;;;;7.20;2.20;;;;;;;14.99;96.96;99409.98;109014;1258;60371;-65
2023/08/29 01:43:21;;;;;;;6.50;2.10;;;;;;;15.00;96.75;99413.83;109045;1258;61289;-65
2023/08/29 01:46:07;;;;;;;6.40;2.20;;;;;;;15.04;97.53;99403.50;109039;1258;74182;-64
2023/08/29 01:48:54;;;;;;;6.80;2.40;;;;;;;15.08;97.55;99392.01;109043;1258;67693;-65
2023/08/29 01:51:40;;;;;;;6.30;2.10;;;;;;;15.13;97.87;99391.70;109058;1258;72735;-65
2023/08/29 01:54:27;;;;;;;7.60;2.30;;;;;;;15.15;97.53;99376.27;109025;1258;58813;-64
2023/08/29 01:57:15;;;;;;;7.10;2.30;;;;;;;15.16;97.39;99367.54;109083;1258;60433;-63
2023/08/29 02:00:04;;;;;;;6.60;2.20;;;;;;;15.17;97.70;99366.73;108999;1258;73034;-64
2023/08/29 02:03:00;;;;;;;6.10;2.20;;;;;;;15.15;97.28;99361.38;108960;1258;67995;-64
2023/08/29 02:05:47;;;;;;;6.40;2.20;;;;;;;15.13;97.40;99349.25;109007;1261;73667;-63
2023/08/29 02:08:33;;;;;;;6.70;2.20;;;;;;;15.11;97.53;99349.52;108948;1260;58768;-64
2023/08/29 02:11:19;;;;;;;6.60;2.20;;;;;;;15.10;97.39;99350.95;109027;1258;60231;-64
2023/08/29 02:14:05;;;;;;;7.70;2.40;;;;;;;15.06;97.85;99345.17;109046;1259;72938;-65
2023/08/29 02:16:52;;;;;;;5.80;1.90;;;;;;;15.06;97.74;99335.77;109024;1258;67733;-67
2023/08/29 02:19:38;;;;;;;6.20;1.90;;;;;;;15.04;97.96;99333.66;109014;1262;73652;-67
2023/08/29 02:22:24;;;;;;;7.00;2.40;;;;;;;15.05;98.32;99334.16;109018;1258;59264;-67
2023/08/29 02:25:11;;;;;;;8.80;2.40;;;;;;;15.08;98.68;99338.56;109038;1258;61265;-65
2023/08/29 02:27:58;;;;;;;6.30;2.20;;;;;;;15.10;98.40;99346.55;109016;1258;74077;-63
2023/08/29 02:30:44;;;;;;;6.20;2.30;;;;;;;15.13;98.22;99347.13;109019;1258;67158;-65
2023/08/29 02:33:32;;;;;;;6.60;2.40;;;;;;;15.15;97.92;99337.67;109026;1258;73740;-65
2023/08/29 02:36:18;;;;;;;6.40;2.00;;;;;;;15.15;98.27;99334.81;108991;1258;59348;-65
2023/08/29 02:39:04;;;;;;;7.70;2.30;;;;;;;15.13;98.28;99330.02;109026;1258;58994;-65
2023/08/29 02:41:51;;;;;;;5.90;2.20;;;;;;;15.10;98.21;99339.45;109038;1258;74304;-65
2023/08/29 02:44:38;;;;;;;6.30;2.20;;;;;;;15.10;98.62;99336.77;109009;1258;68893;-64
2023/08/29 02:47:24;;;;;;;6.60;2.10;;;;;;;15.11;98.37;99338.30;109022;1258;73749;-65
2023/08/29 02:50:11;;;;;;;5.70;2.00;;;;;;;15.11;98.26;99346.48;109028;1258;59395;-67
2023/08/29 02:52:57;;;;;;;7.00;1.90;;;;;;;15.13;98.17;99341.40;109093;1258;59878;-64
2023/08/29 02:55:43;;;;;;;6.80;2.00;;;;;;;15.14;97.90;99335.98;109039;1258;72920;-66
2023/08/29 02:58:30;;;;;;;6.60;2.40;;;;;;;15.12;97.95;99324.53;109088;1257;67676;-65
2023/08/29 03:01:16;;;;;;;8.10;2.30;;;;;;;15.13;98.09;99320.88;108988;1258;72173;-65
2023/08/29 03:04:03;;;;;;;7.00;2.20;;;;;;;15.13;98.04;99319.00;109038;1259;57989;-66
2023/08/29 03:06:51;;;;;;;6.90;1.90;;;;;;;15.12;98.37;99325.66;109029;1258;60823;-66
2023/08/29 03:09:38;;;;;;;7.20;1.90;;;;;;;15.12;98.70;99323.13;108937;1258;73908;-69
2023/08/29 03:12:24;;;;;;;6.20;1.90;;;;;;;15.13;98.64;99303.02;109008;1258;69146;-64
2023/08/29 03:15:13;;;;;;;6.30;2.00;;;;;;;15.13;98.58;99296.05;109025;1260;72714;-66
2023/08/29 03:18:00;;;;;;;5.50;1.80;;;;;;;15.12;98.53;99285.64;109061;1259;59699;-66
2023/08/29 03:20:47;;;;;;;6.80;2.10;;;;;;;15.11;98.95;99277.59;108892;1258;60212;-64
2023/08/29 03:23:35;;;;;;;6.20;2.20;;;;;;;15.09;98.90;99277.89;108984;1259;73075;-64
2023/08/29 03:26:21;;;;;;;5.90;1.80;;;;;;;15.09;99.15;99273.14;109037;1258;66887;-66
2023/08/29 03:29:07;;;;;;;5.50;1.90;;;;;;;15.08;99.60;99257.73;109093;1258;73408;-65
2023/08/29 03:31:54;;;;;;;8.30;2.50;;;;;;;15.05;99.96;99244.84;109008;1258;58013;-64
2023/08/29 03:34:40;;;;;;;6.70;2.40;;;;;;;15.01;100.00;99248.41;109006;1258;61474;-65
2023/08/29 03:37:27;;;;;;;6.90;2.50;;;;;;;14.99;100.00;99256.33;109005;1258;73022;-64
2023/08/29 03:40:14;;;;;;;6.30;2.00;;;;;;;15.00;100.00;99256.10;109042;1258;67761;-64
2023/08/29 03:43:01;;;;;;;6.50;1.90;;;;;;;14.98;100.00;99254.63;108952;1258;72580;-64
2023/08/29 03:46:04;;;;;;;7.20;2.40;;;;;;;14.97;100.00;99261.55;109008;1260;59593;-66
2023/08/29 03:48:51;;;;;;;7.10;2.20;;;;;;;14.99;100.00;99263.33;109023;1258;60372;-64
2023/08/29 03:51:37;;;;;;;7.10;1.90;;;;;;;14.98;100.00;99262.45;109039;1258;71653;-64
2023/08/29 03:54:24;;;;;;;6.30;2.50;;;;;;;14.99;100.00;99263.34;109016;1259;67738;-64
2023/08/29 03:57:12;;;;;;;7.20;2.30;;;;;;;15.00;100.00;99258.20;109029;1258;74087;-65
2023/08/29 03:59:58;;;;;;;7.80;2.30;;;;;;;15.04;100.00;99259.71;109023;1258;60724;-65
2023/08/29 04:02:45;;;;;;;7.90;2.20;;;;;;;15.07;100.00;99247.76;109034;1258;59188;-65
2023/08/29 04:05:32;;;;;;;6.10;2.30;;;;;;;15.09;100.00;99238.77;109023;1259;73397;-65
2023/08/29 04:08:18;;;;;;;6.70;2.20;;;;;;;15.10;100.00;99234.59;108961;1258;68860;-65
2023/08/29 04:11:05;;;;;;;6.40;2.30;;;;;;;15.09;100.00;99219.95;108954;1258;73726;-64
2023/08/29 04:13:52;;;;;;;7.30;2.70;;;;;;;15.09;100.00;99220.25;108969;1258;59580;-64
2023/08/29 04:16:39;;;;;;;5.90;2.40;;;;;;;15.11;100.00;99218.27;108993;1258;61297;-64
2023/08/29 04:19:25;;;;;;;7.50;2.80;;;;;;;15.14;100.00;99212.16;109005;1258;74140;-65
2023/08/29 04:22:11;;;;;;;6.80;2.90;;;;;;;15.17;100.00;99204.23;109017;1258;67315;-64
2023/08/29 04:24:58;;;;;;;8.00;3.20;;;;;;;15.19;100.00;99220.54;109026;1257;72468;-66
2023/08/29 04:27:46;;;;;;;7.40;2.50;;;;;;;15.24;100.00;99229.17;109124;1257;58121;-66
2023/08/29 04:30:33;;;;;;;8.10;3.10;;;;;;;15.32;100.00;99237.88;109123;1257;61053;-65
2023/08/29 04:33:20;;;;;;;7.50;2.60;;;;;;;15.39;100.00;99241.81;109022;1258;72917;-65
2023/08/29 04:36:06;;;;;;;6.80;2.40;;;;;;;15.43;100.00;99252.89;109036;1258;67937;-67
2023/08/29 04:38:52;;;;;;;8.00;2.60;;;;;;;15.48;100.00;99269.41;109025;1258;72994;-66
2023/08/29 04:41:38;;;;;;;8.20;3.20;;;;;;;15.53;100.00;99270.61;108998;1258;59689;-65
2023/08/29 04:44:25;;;;;;;8.20;3.10;;;;;;;15.53;100.00;99281.53;109015;1259;61375;-65
2023/08/29 04:47:11;;;;;;;8.70;3.30;;;;;;;15.46;100.00;99275.98;109070;1258;73004;-64
2023/08/29 04:50:01;;;;;;;7.50;3.50;;;;;;;15.41;100.00;99284.27;109004;1258;68010;-64
2023/08/29 04:52:53;;;;;;;7.30;3.80;;;;;;;15.31;100.00;99300.23;108905;1258;73594;-68
2023/08/29 04:55:39;;;;;;;7.10;3.60;;;;;;;15.24;100.00;99309.58;108963;1258;58023;-66
2023/08/29 04:58:25;;;;;;;9.60;3.80;;;;;;;15.16;100.00;99305.26;108928;1258;61383;-64
2023/08/29 05:01:12;;;;;;;8.60;3.80;;;;;;;15.12;100.00;99304.80;108965;1258;72920;-66
2023/08/29 05:03:58;;;;;;;7.20;3.40;;;;;;;15.08;100.00;99311.97;109073;1258;67875;-66
2023/08/29 05:06:45;;;;;;;8.50;3.60;;;;;;;15.05;100.00;99297.15;108944;1257;73971;-67
2023/08/29 05:09:32;;;;;;;7.70;3.60;;;;;;;15.06;100.00;99260.45;108966;1257;59459;-65
2023/08/29 05:12:18;;;;;;;8.50;3.60;;;;;;;15.08;100.00;99225.05;109055;1257;61333;-69
2023/08/29 05:15:05;;;;;;;6.90;3.50;;;;;;;15.08;100.00;99194.39;109047;1257;72813;-69
2023/08/29 05:17:52;;;;;;;9.00;4.50;;;;;;;15.08;100.00;99184.69;109064;1257;66834;-69
2023/08/29 05:20:39;;;;;;;10.00;4.60;;;;;;;15.05;100.00;99215.63;109080;1257;71667;-68
2023/08/29 05:23:25;;;;;;;10.00;4.40;;;;;;;15.03;100.00;99203.05;109074;1257;59660;-66
2023/08/29 05:26:12;;;;;;;7.80;3.60;;;;;;;15.06;100.00;99181.30;109084;1257;58867;-68
2023/08/29 05:28:59;;;;;;;9.50;4.50;;;;;;;15.10;100.00;99193.35;109078;1257;72973;-67
2023/08/29 05:31:45;;;;;;;8.90;4.70;;;;;;;15.08;100.00;99244.94;109107;1257;66950;-66
2023/08/29 05:34:32;;;;;;;10.30;4.70;;;;;;;15.03;100.00;99263.06;109092;1257;73746;-67
2023/08/29 05:37:17;;;;;;;10.50;5.10;;;;;;;14.99;100.00;99270.23;109096;1257;57982;-68
2023/08/29 05:40:06;;;;;;;10.70;5.10;;;;;;;14.95;100.00;99264.77;109067;1257;61713;-67
2023/08/29 05:42:53;;;;;;;9.70;5.40;;;;;;;14.92;100.00;99220.29;109095;1257;74049;-65
2023/08/29 05:45:42;;;;;;;10.80;5.30;;;;;;;14.95;100.00;99192.46;109116;1257;68727;-67
2023/08/29 05:48:28;;;;;;;10.10;5.30;;;;;;;14.98;100.00;99190.55;109068;1257;71951;-67
2023/08/29 05:51:14;;;;;;;14.80;6.70;;;;;;;14.97;100.00;99196.76;109124;1257;58648;-70
2023/08/29 05:54:01;;;;;;;10.90;5.60;;;;;;;14.98;100.00;99219.23;109067;1257;61305;-67
2023/08/29 05:56:47;;;;;;;10.20;4.90;;;;;;;14.92;100.00;99234.93;109035;1257;74143;-67
2023/08/29 05:59:33;;;;;;;8.60;4.10;;;;;;;14.86;100.00;99209.75;109089;1257;67682;-66
2023/08/29 06:02:20;;;;;;;8.90;4.00;;;;;;;14.83;100.00;99147.34;109058;1257;72449;-67
2023/08/29 06:05:07;;;;;;;8.50;3.90;;;;;;;14.86;100.00;99141.19;109052;1257;59411;-70
2023/08/29 06:07:53;;;;;;;8.90;4.10;;;;;;;14.85;100.00;99216.45;109078;1259;61134;-67
2023/08/29 06:10:54;;;;;;;8.30;4.10;;;;;;;14.83;100.00;99223.77;109084;1259;73861;-66
2023/08/29 06:13:43;;;;;;;8.90;4.40;;;;;;;14.85;100.00;99202.11;109096;1257;67879;-68
2023/08/29 06:16:31;;;;;;;8.60;4.20;;;;;;;14.89;100.00;99176.33;109052;1257;72139;-65
2023/08/29 06:19:17;;;;;;;10.50;4.30;;;;;;;14.95;100.00;99148.32;109021;1257;59403;-65
2023/08/29 06:22:03;;;;;;;12.00;4.50;;;;;;;15.05;100.00;99144.05;109052;1257;61383;-66
2023/08/29 06:24:50;;;;;;;8.30;4.00;;;;;;;15.15;100.00;99151.00;109107;1257;73748;-67
2023/08/29 06:27:37;;;;;;;8.80;3.40;;;;;;;15.24;100.00;99146.75;109064;1257;67975;-67
2023/08/29 06:30:23;;;;;;;7.60;3.30;;;;;;;15.33;100.00;99149.85;108980;1257;74119;-65
2023/08/29 06:33:09;;;;;;;7.40;3.00;;;;;;;15.41;100.00;99145.73;109049;1257;60548;-66
2023/08/29 06:35:56;;;;;;;7.70;3.40;;;;;;;15.46;100.00;99156.23;109050;1258;60002;-66
2023/08/29 06:38:42;;;;;;;7.60;3.30;;;;;;;15.50;100.00;99165.11;109055;1257;72707;-64
2023/08/29 06:41:29;;;;;;;9.30;4.20;;;;;;;15.55;100.00;99173.17;108981;1257;196712;-68
2023/08/29 06:44:15;;;;;;;9.30;3.70;;;;;;;15.61;100.00;99186.46;109074;1257;72738;-67
2023/08/29 06:47:01;;;;;;;7.90;3.40;;;;;;;15.66;100.00;99185.16;108984;1257;57567;-67
2023/08/29 06:49:47;;;;;;;8.30;3.20;;;;;;;15.70;100.00;99172.70;109078;1257;60057;-69
2023/08/29 06:52:34;;;;;;;8.50;3.00;;;;;;;15.74;100.00;99163.70;109069;1257;74299;-68
2023/08/29 06:55:23;;;;;;;14.50;4.00;;;;;;;15.75;100.00;99166.79;109082;1257;68040;-66
2023/08/29 06:58:10;;;;;;;12.70;3.70;;;;;;;15.78;100.00;99168.71;109069;1257;73293;-66
2023/08/29 07:00:56;;;;;;;12.10;3.80;;;;;;;15.83;100.00;99164.49;109078;1257;58216;-70
2023/08/29 07:03:42;;;;;;;11.00;3.50;;;;;;;15.88;100.00;99161.91;108983;1257;60173;-68
2023/08/29 07:06:29;;;;;;;11.60;3.20;;;;;;;15.93;100.00;99163.67;109058;1257;72937;-67
2023/08/29 07:09:16;;;;;;;16.20;3.90;;;;;;;15.97;100.00;99162.30;109092;1257;68751;-67
2023/08/29 07:12:03;;;;;;;14.10;2.80;;;;;;;16.01;100.00;99159.77;109115;1257;73404;-67
2023/08/29 07:14:49;;;;;;;11.00;3.00;;;;;;;16.00;100.00;99152.83;109030;1257;60600;-68
2023/08/29 07:17:36;;;;;;;9.50;2.50;;;;;;;15.98;100.00;99141.85;109081;1257;59968;-72
2023/08/29 07:20:22;;;;;;;10.20;2.50;;;;;;;15.98;100.00;99143.99;109043;1257;71895;-67
2023/08/29 07:23:09;;;;;;;8.60;2.80;;;;;;;16.00;100.00;99145.69;109015;1258;66427;-72
2023/08/29 07:25:55;;;;;;;7.80;2.60;;;;;;;16.01;100.00;99146.16;109008;1257;73723;-67
2023/08/29 07:28:41;;;;;;;7.20;2.30;;;;;;;15.98;100.00;99139.33;109094;1257;59428;-69
2023/08/29 07:31:27;;;;;;;10.10;3.00;;;;;;;15.95;100.00;99135.76;109111;1257;60056;-69
2023/08/29 07:34:15;;;;;;;8.20;2.80;;;;;;;15.94;100.00;99133.52;109058;1257;72815;-68
2023/08/29 07:37:02;;;;;;;8.50;3.00;;;;;;;15.96;100.00;99124.85;109089;1257;67812;-65
2023/08/29 07:39:48;;;;;;;8.70;2.10;;;;;;;15.97;100.00;99121.05;109098;1257;73664;-66
2023/08/29 07:42:35;;;;;;;8.40;2.40;;;;;;;16.00;100.00;99115.17;109084;1257;59678;-70
2023/08/29 07:45:21;;;;;;;6.80;2.70;;;;;;;16.03;100.00;99121.96;109087;1257;60139;-69
2023/08/29 07:48:08;;;;;;;7.00;2.30;;;;;;;16.05;100.00;99129.63;109123;1257;73028;-68
2023/08/29 07:50:55;;;;;;;5.90;2.00;;;;;;;16.01;100.00;99137.60;109092;1257;66373;-69
2023/08/29 07:53:41;;;;;;;6.10;1.70;;;;;;;15.99;100.00;99143.81;109071;1257;73520;-68
2023/08/29 07:56:28;;;;;;;13.00;7.30;;;;;;;15.93;100.00;99150.48;109064;1257;58909;-70
2023/08/29 07:59:14;;;;;;;8.40;3.50;;;;;;;15.88;100.00;99156.73;109078;1257;59026;-69
2023/08/29 08:02:00;;;;;;;6.70;2.10;;;;;;;15.82;99.83;99156.01;109057;1257;71894;-65
2023/08/29 08:04:47;;;;;;;5.90;2.30;;;;;;;15.71;99.21;99152.02;109063;1257;68706;-66
2023/08/29 08:07:33;;;;;;;6.50;2.00;;;;;;;15.63;99.34;99151.73;109137;1257;70417;-68
2023/08/29 08:10:19;;;;;;;6.30;2.20;;;;;;;15.54;98.79;99148.90;109084;1257;58339;-69
2023/08/29 08:13:05;;;;;;;6.60;2.10;;;;;;;15.52;98.77;99147.80;109081;1257;59108;-71
2023/08/29 08:15:52;;;;;;;8.10;2.10;;;;;;;15.48;99.26;99154.92;109108;1257;73940;-68
2023/08/29 08:18:38;;;;;;;6.80;1.90;;;;;;;15.48;100.00;99155.50;109103;1257;66701;-66
2023/08/29 08:21:25;;;;;;;6.20;2.20;;;;;;;15.47;100.00;99154.73;109039;1257;74040;-67
2023/08/29 08:24:11;;;;;;;6.10;2.00;;;;;;;15.45;100.00;99151.20;109099;1257;58281;-67
2023/08/29 08:26:57;;;;;;;8.30;2.50;;;;;;;15.44;100.00;99145.92;109095;1257;61429;-67
2023/08/29 08:29:43;;;;;;;6.10;2.20;;;;;;;15.44;100.00;99142.02;109098;1257;73033;-69
2023/08/29 08:32:29;;;;;;;7.10;2.10;;;;;;;15.45;100.00;99143.35;109067;1257;67724;-68
2023/08/29 08:35:15;;;;;;;6.90;2.00;;;;;;;15.48;100.00;99157.85;109075;1257;73008;-71
2023/08/29 08:38:02;;;;;;;7.40;1.90;;;;;;;15.49;100.00;99150.90;109084;1257;60452;-67
2023/08/29 08:40:48;;;;;;;6.50;1.90;;;;;;;15.50;99.98;99144.02;109120;1257;60060;-67
2023/08/29 08:43:36;;;;;;;5.70;1.80;;;;;;;15.46;99.82;99133.89;109105;1257;73818;-67
2023/08/29 08:46:23;;;;;;;5.30;1.80;;;;;;;15.42;99.74;99137.05;109124;1257;66714;-68
2023/08/29 08:49:10;;;;;;;7.60;2.10;;;;;;;15.42;100.00;99141.58;109017;1257;72619;-66
2023/08/29 08:51:58;;;;;;;6.40;1.90;;;;;;;15.37;100.00;99138.52;109075;1258;60457;-68
2023/08/29 08:54:44;;;;;;;5.60;1.60;;;;;;;15.37;100.00;99128.38;109115;1257;58773;-65
2023/08/29 08:57:31;;;;;;;6.10;2.00;;;;;;;15.36;100.00;99126.12;109090;1257;73128;-66
2023/08/29 09:00:20;;;;;;;6.10;2.20;;;;;;;15.35;100.00;99122.47;109043;1257;66373;-66
2023/08/29 09:03:06;;;;;;;6.90;2.00;;;;;;;15.36;100.00;99133.65;108891;1260;72669;-67
2023/08/29 09:05:53;;;;;;;12.60;6.00;;;;;;;15.31;100.00;99133.77;108918;1260;60601;-68
2023/08/29 09:08:40;;;;;;;9.10;3.10;;;;;;;15.30;100.00;99130.49;108928;1261;60159;-66
2023/08/29 09:11:26;;;;;;;9.90;2.50;;;;;;;15.32;100.00;99134.02;108941;1260;72805;-68
2023/08/29 09:14:12;;;;;;;11.60;2.30;;;;;;;15.30;100.00;99144.66;108935;1260;68182;-67
2023/08/29 09:17:01;;;;;;;6.50;2.20;;;;;;;15.29;100.00;99151.60;108927;1260;72663;-68
2023/08/29 09:19:47;;;;;;;6.70;2.30;;;;;;;15.33;100.00;99146.43;108874;1260;59267;-65
2023/08/29 09:22:34;;;;;;;8.40;2.20;;;;;;;15.37;100.00;99153.33;108888;1260;61639;-67
2023/08/29 09:25:20;;;;;;;6.60;2.00;;;;;;;15.37;100.00;99151.23;108916;1261;74154;-68
2023/08/29 09:28:10;;;;;;;7.10;2.40;;;;;;;15.36;100.00;99153.29;108951;1261;68197;-65
2023/08/29 09:31:10;;;;;;;6.30;2.20;;;;;;;15.37;100.00;99156.93;108710;1260;73815;-69
2023/08/29 09:33:57;;;;;;;6.20;2.00;;;;;;;15.37;100.00;99152.52;108903;1258;60475;-66
2023/08/29 09:36:44;;;;;;;6.00;1.90;;;;;;;15.37;100.00;99145.35;108996;1258;61035;-65
2023/08/29 09:39:30;;;;;;;6.50;2.50;;;;;;;15.38;100.00;99145.98;108988;1261;73953;-68
2023/08/29 09:42:19;;;;;;;7.90;2.50;;;;;;;15.36;100.00;99148.63;109035;1258;68758;-65
2023/08/29 09:45:07;;;;;;;10.40;2.40;;;;;;;15.37;100.00;99154.77;108988;1258;71137;-66
2023/08/29 09:47:54;;;;;;;7.40;2.50;;;;;;;15.37;100.00;99158.95;108934;1258;60626;-66
2023/08/29 09:50:41;;;;;;;7.00;2.60;;;;;;;15.38;100.00;99155.27;108926;1258;60152;-66
2023/08/29 09:53:28;;;;;;;7.00;2.40;;;;;;;15.37;100.00;99144.48;109013;1258;73791;-67
2023/08/29 09:56:19;;;;;;;5.90;2.20;;;;;;;15.34;100.00;99148.85;108921;1258;66444;-69
2023/08/29 09:59:11;;;;;;;7.80;2.70;;;;;;;15.33;100.00;99150.89;108982;1258;70623;-65
2023/08/29 10:01:58;;;;;;;11.20;2.80;;;;;;;15.36;100.00;99159.96;108938;1260;58520;-68
2023/08/29 10:04:48;;;;;;;7.90;2.90;;;;;;;15.38;100.00;99158.08;108960;1257;61209;-66
2023/08/29 10:07:41;;;;;;;7.80;2.80;;;;;;;15.39;100.00;99149.73;109023;1258;72987;-67
2023/08/29 10:10:28;;;;;;;8.70;2.70;;;;;;;15.39;100.00;99150.27;109095;1257;66822;-65
2023/08/29 10:13:18;;;;;;;7.50;2.50;;;;;;;15.38;100.00;99144.48;109095;1259;72901;-67
2023/08/29 10:16:05;;;;;;;7.20;2.30;;;;;;;15.36;100.00;99140.63;109024;1258;60599;-66
2023/08/29 10:18:55;;;;;;;7.20;2.40;;;;;;;15.38;100.00;99144.30;109012;1257;60357;-69
2023/08/29 10:21:44;;;;;;;7.90;2.00;;;;;;;15.39;100.00;99144.45;109074;1258;73042;-64
2023/08/29 10:24:32;;;;;;;7.80;2.40;;;;;;;15.38;100.00;99139.31;109095;1258;67807;-66
2023/08/29 10:27:18;;;;;;;6.10;2.10;;;;;;;15.39;100.00;99136.56;109043;1257;71213;-66
2023/08/29 10:30:05;;;;;;;6.50;2.20;;;;;;;15.40;100.00;99143.42;109073;1259;58343;-69
2023/08/29 10:32:53;;;;;;;6.80;2.30;;;;;;;15.41;100.00;99144.48;109063;1258;60055;-67
2023/08/29 10:35:40;;;;;;;6.60;2.40;;;;;;;15.43;100.00;99147.70;109105;1257;71952;-67
2023/08/29 10:38:28;;;;;;;7.10;2.60;;;;;;;15.45;100.00;99146.16;109082;1257;67843;-70
2023/08/29 10:41:15;;;;;;;6.10;2.20;;;;;;;15.49;100.00;99131.89;108999;1257;73797;-66
2023/08/29 10:44:28;;;;;;;7.00;2.30;;;;;;;15.52;100.00;99122.87;109041;1257;58260;-69
2023/08/29 10:47:26;;;;;;;6.10;2.20;;;;;;;15.53;100.00;99095.80;109104;1258;60864;-66
2023/08/29 10:50:21;;;;;;;5.80;2.00;;;;;;;15.52;100.00;99083.55;109102;1257;72757;-67
2023/08/29 10:53:18;;;;;;;7.50;2.80;;;;;;;15.50;100.00;99084.16;109108;1257;67660;-68
2023/08/29 10:56:07;;;;;;;6.60;2.10;;;;;;;15.50;100.00;99083.02;109053;1257;73652;-68
2023/08/29 10:58:53;;;;;;;6.00;1.80;;;;;;;15.53;100.00;99083.81;108965;1257;58028;-63
2023/08/29 11:01:40;;;;;;;8.60;3.90;;;;;;;15.55;100.00;99075.86;109116;1257;58814;-66
2023/08/29 11:04:27;;;;;;;6.70;2.40;;;;;;;15.56;100.00;99064.48;109059;1257;73898;-66
2023/08/29 11:07:25;;;;;;;5.80;2.00;;;;;;;15.57;100.00;99070.69;109094;1257;68793;-70
2023/08/29 11:10:22;;;;;;;6.50;2.00;;;;;;;15.58;100.00;99083.09;109016;1257;72740;-66
2023/08/29 11:13:11;;;;;;;7.60;2.10;;;;;;;15.60;100.00;99082.27;108981;1260;60664;-65
2023/08/29 11:16:03;;;;;;;6.50;2.20;;;;;;;15.63;100.00;99082.25;108987;1259;57930;-69
2023/08/29 11:19:07;;;;;;;6.80;2.60;;;;;;;15.67;100.00;99109.09;108970;1258;74060;-66
2023/08/29 11:21:53;;;;;;;9.40;3.00;;;;;;;15.69;100.00;99120.65;108985;1258;66754;-64
2023/08/29 11:24:41;;;;;;;7.90;2.60;;;;;;;15.73;100.00;99120.32;109004;1258;71393;-64
2023/08/29 11:27:28;;;;;;;7.90;2.80;;;;;;;15.78;100.00;99116.37;109006;1258;59279;-66
2023/08/29 11:30:16;;;;;;;6.90;2.80;;;;;;;15.79;100.00;99114.47;109008;1258;60377;-67
2023/08/29 11:33:29;;;;;;;7.30;2.60;;;;;;;15.83;100.00;99108.64;108991;1259;73051;-67
2023/08/29 11:36:16;;;;;;;8.80;3.60;;;;;;;15.87;100.00;99117.13;108966;1258;68895;-66
2023/08/29 11:39:04;;;;;;;9.80;3.30;;;;;;;15.91;100.00;99119.89;108973;1258;71562;-66
2023/08/29 11:41:50;;;;;;;8.30;3.10;;;;;;;15.94;100.00;99121.89;108930;1258;60535;-68
2023/08/29 11:44:56;;;;;;;10.10;3.80;;;;;;;15.98;100.00;99120.71;109001;1257;60329;-65
2023/08/29 11:48:03;;;;;;;7.90;3.30;;;;;;;16.05;100.00;99106.17;109070;1260;73894;-68
2023/08/29 11:50:55;;;;;;;11.60;3.90;;;;;;;16.09;100.00;99089.64;109059;1258;69043;-67
2023/08/29 11:53:41;;;;;;;8.50;3.80;;;;;;;16.11;100.00;99071.31;108974;1258;72352;-65
2023/08/29 11:56:28;;;;;;;9.70;3.10;;;;;;;16.12;100.00;99064.98;108985;1258;59274;-67
2023/08/29 11:59:14;;;;;;;9.10;3.30;;;;;;;16.13;100.00;99066.27;109011;1258;59147;-64
2023/08/29 12:02:01;;;;;;;8.30;3.40;;;;;;;16.16;100.00;99070.88;109010;1258;71989;-66
2023/08/29 12:04:52;;;;;;;8.60;3.70;;;;;;;16.18;100.00;99065.45;109005;1258;66425;-69
2023/08/29 12:07:38;;;;;;;7.50;3.00;;;;;;;16.21;100.00;99064.64;108931;1258;73561;-66
2023/08/29 12:10:26;;;;;;;8.40;3.60;;;;;;;16.23;100.00;99068.31;108939;1258;59255;-64
2023/08/29 12:13:13;;;;;;;8.10;2.90;;;;;;;16.27;100.00;99072.42;108981;1258;61229;-65
2023/08/29 12:15:59;;;;;;;8.10;3.30;;;;;;;16.30;100.00;99075.02;109059;1257;74035;-66
2023/08/29 12:18:50;;;;;;;8.70;3.50;;;;;;;16.33;100.00;99066.75;109119;1257;66814;-66
2023/08/29 12:21:37;;;;;;;9.80;3.80;;;;;;;16.35;100.00;99062.77;109066;1257;72440;-66
2023/08/29 12:24:23;;;;;;;8.80;3.80;;;;;;;16.38;100.00;99061.50;109040;1257;59327;-64
2023/08/29 12:27:10;;;;;;;9.10;3.60;;;;;;;16.41;100.00;99059.06;109024;1257;60168;-68
2023/08/29 12:29:57;;;;;;;9.00;3.60;;;;;;;16.43;100.00;99063.84;109060;1259;72956;-66
2023/08/29 12:32:46;;;;;;;7.20;2.80;;;;;;;16.43;100.00;99065.04;109039;1257;65502;-66
2023/08/29 12:35:32;;;;;;;11.80;3.50;;;;;;;16.45;100.00;99061.44;108987;1257;72072;-68
2023/08/29 12:38:18;;;;;;;21.60;13.50;;;;;;;16.48;100.00;99059.05;109044;1257;58152;-68
2023/08/29 12:41:04;;;;;;;9.30;4.20;;;;;;;16.54;100.00;99052.16;109088;1257;58726;-66
2023/08/29 12:43:51;;;;;;;8.60;3.30;;;;;;;16.57;100.00;99049.45;109054;1257;72142;-67
2023/08/29 12:46:37;;;;;;;7.20;3.60;;;;;;;16.57;100.00;99047.08;109070;1257;68866;-68
2023/08/29 12:49:23;;;;;;;8.10;3.00;;;;;;;16.57;100.00;99050.23;109034;1257;73695;-66
2023/08/29 12:52:10;;;;;;;7.80;2.60;;;;;;;16.57;100.00;99052.08;109061;1257;60457;-66
2023/08/29 12:54:57;;;;;;;7.50;3.20;;;;;;;16.58;100.00;99050.77;109059;1258;60041;-69